sensor_id;sensor_type;location;lat;lon;timestamp;P1;durP1;ratioP1;P2;durP2;ratioP2
5257;SDS011;2651;51.594;9.928;2023-05-14T00:00:05;7.32;;;6.57;;
5257;SDS011;2651;51.594;9.928;2023-05-14T00:01:08;6.55;;;5.50;;
5257;SDS011;2651;51.594;9.928;2023-05-14T00:02:10;10.13;;;6.00;;
5257;SDS011;2651;51.594;9.928;2023-05-14T00:03:11;9.98;;;6.53;;
5257;SDS011;2651;51.594;9.928;2023-05-14T00:04:13;7.50;;;6.32;;
5257;SDS011;2651;51.594;9.928;2023-05-14T00:05:15;7.88;;;6.93;;
5257;SDS011;2651;51.594;9.928;2023-05-14T00:06:16;6.90;;;6.20;;
5257;SDS011;2651;51.594;9.928;2023-05-14T00:07:18;7.45;;;6.50;;
5257;SDS011;2651;51.594;9.928;2023-05-14T00:08:20;7.10;;;6.35;;
5257;SDS011;2651;51.594;9.928;2023-05-14T00:09:21;7.65;;;6.95;;
5257;SDS011;2651;51.594;9.928;2023-05-14T00:10:23;7.45;;;6.40;;
5257;SDS011;2651;51.594;9.928;2023-05-14T00:11:26;8.00;;;6.28;;
5257;SDS011;2651;51.594;9.928;2023-05-14T00:12:28;7.53;;;6.50;;
5257;SDS011;2651;51.594;9.928;2023-05-14T00:13:30;7.13;;;6.50;;
5257;SDS011;2651;51.594;9.928;2023-05-14T00:14:31;7.25;;;6.30;;
5257;SDS011;2651;51.594;9.928;2023-05-14T00:15:33;6.97;;;6.28;;
5257;SDS011;2651;51.594;9.928;2023-05-14T00:16:35;8.88;;;6.70;;
5257;SDS011;2651;51.594;9.928;2023-05-14T00:17:36;7.30;;;6.53;;
5257;SDS011;2651;51.594;9.928;2023-05-14T00:18:39;6.95;;;6.25;;
5257;SDS011;2651;51.594;9.928;2023-05-14T00:19:40;7.07;;;6.38;;
5257;SDS011;2651;51.594;9.928;2023-05-14T00:20:42;7.32;;;6.20;;
5257;SDS011;2651;51.594;9.928;2023-05-14T00:21:44;7.55;;;6.20;;
5257;SDS011;2651;51.594;9.928;2023-05-14T00:22:47;7.70;;;6.90;;
5257;SDS011;2651;51.594;9.928;2023-05-14T00:23:48;9.30;;;6.28;;
5257;SDS011;2651;51.594;9.928;2023-05-14T00:24:50;7.10;;;6.40;;
5257;SDS011;2651;51.594;9.928;2023-05-14T00:25:51;10.48;;;7.18;;
5257;SDS011;2651;51.594;9.928;2023-05-14T00:26:53;12.10;;;6.70;;
5257;SDS011;2651;51.594;9.928;2023-05-14T00:27:55;6.20;;;5.68;;
5257;SDS011;2651;51.594;9.928;2023-05-14T00:28:56;11.88;;;6.43;;
5257;SDS011;2651;51.594;9.928;2023-05-14T00:29:58;8.10;;;6.80;;
5257;SDS011;2651;51.594;9.928;2023-05-14T00:30:59;7.13;;;6.40;;
5257;SDS011;2651;51.594;9.928;2023-05-14T00:32:01;6.95;;;6.20;;
5257;SDS011;2651;51.594;9.928;2023-05-14T00:33:03;8.80;;;6.50;;
5257;SDS011;2651;51.594;9.928;2023-05-14T00:34:05;8.55;;;7.13;;
5257;SDS011;2651;51.594;9.928;2023-05-14T00:35:07;14.90;;;6.07;;
5257;SDS011;2651;51.594;9.928;2023-05-14T00:36:09;7.65;;;6.80;;
5257;SDS011;2651;51.594;9.928;2023-05-14T00:37:10;7.97;;;6.68;;
5257;SDS011;2651;51.594;9.928;2023-05-14T00:38:12;9.48;;;7.60;;
5257;SDS011;2651;51.594;9.928;2023-05-14T00:39:17;8.30;;;6.60;;
5257;SDS011;2651;51.594;9.928;2023-05-14T00:40:18;7.72;;;6.03;;
5257;SDS011;2651;51.594;9.928;2023-05-14T00:41:21;7.72;;;7.03;;
5257;SDS011;2651;51.594;9.928;2023-05-14T00:42:23;11.00;;;8.07;;
5257;SDS011;2651;51.594;9.928;2023-05-14T00:43:24;8.68;;;6.70;;
5257;SDS011;2651;51.594;9.928;2023-05-14T00:44:26;7.60;;;6.80;;
5257;SDS011;2651;51.594;9.928;2023-05-14T00:54:39;6.25;;;5.65;;
5257;SDS011;2651;51.594;9.928;2023-05-14T00:55:41;8.43;;;6.60;;
5257;SDS011;2651;51.594;9.928;2023-05-14T00:56:45;6.93;;;6.15;;
5257;SDS011;2651;51.594;9.928;2023-05-14T00:57:48;6.35;;;5.72;;
5257;SDS011;2651;51.594;9.928;2023-05-14T00:58:51;9.90;;;6.60;;
5257;SDS011;2651;51.594;9.928;2023-05-14T00:59:52;7.35;;;6.45;;
5257;SDS011;2651;51.594;9.928;2023-05-14T01:00:54;15.52;;;6.70;;
5257;SDS011;2651;51.594;9.928;2023-05-14T01:01:56;8.07;;;7.10;;
5257;SDS011;2651;51.594;9.928;2023-05-14T01:02:58;6.93;;;6.32;;
5257;SDS011;2651;51.594;9.928;2023-05-14T01:04:02;7.43;;;6.60;;
5257;SDS011;2651;51.594;9.928;2023-05-14T01:05:04;11.68;;;6.95;;
5257;SDS011;2651;51.594;9.928;2023-05-14T01:06:12;7.32;;;6.63;;
5257;SDS011;2651;51.594;9.928;2023-05-14T01:07:29;7.18;;;6.40;;
5257;SDS011;2651;51.594;9.928;2023-05-14T01:10:13;7.97;;;6.45;;
5257;SDS011;2651;51.594;9.928;2023-05-14T01:11:23;9.30;;;6.40;;
5257;SDS011;2651;51.594;9.928;2023-05-14T01:12:45;7.78;;;6.97;;
5257;SDS011;2651;51.594;9.928;2023-05-14T01:13:55;10.35;;;5.93;;
5257;SDS011;2651;51.594;9.928;2023-05-14T01:16:28;6.55;;;5.70;;
5257;SDS011;2651;51.594;9.928;2023-05-14T01:17:34;7.22;;;6.47;;
5257;SDS011;2651;51.594;9.928;2023-05-14T01:18:41;7.40;;;6.35;;
5257;SDS011;2651;51.594;9.928;2023-05-14T01:19:46;7.10;;;6.20;;
5257;SDS011;2651;51.594;9.928;2023-05-14T01:20:48;7.20;;;6.13;;
5257;SDS011;2651;51.594;9.928;2023-05-14T01:21:52;6.25;;;5.65;;
5257;SDS011;2651;51.594;9.928;2023-05-14T01:22:53;6.10;;;5.22;;
5257;SDS011;2651;51.594;9.928;2023-05-14T01:23:55;7.20;;;6.35;;
5257;SDS011;2651;51.594;9.928;2023-05-14T01:24:57;7.45;;;6.47;;
5257;SDS011;2651;51.594;9.928;2023-05-14T01:25:58;8.20;;;6.57;;
5257;SDS011;2651;51.594;9.928;2023-05-14T01:27:03;10.15;;;5.90;;
5257;SDS011;2651;51.594;9.928;2023-05-14T01:28:18;7.43;;;6.15;;
5257;SDS011;2651;51.594;9.928;2023-05-14T01:29:27;7.95;;;6.90;;
5257;SDS011;2651;51.594;9.928;2023-05-14T01:30:34;9.45;;;6.50;;
5257;SDS011;2651;51.594;9.928;2023-05-14T01:31:38;7.88;;;6.93;;
5257;SDS011;2651;51.594;9.928;2023-05-14T01:32:43;7.72;;;6.78;;
5257;SDS011;2651;51.594;9.928;2023-05-14T01:33:48;6.38;;;5.88;;
5257;SDS011;2651;51.594;9.928;2023-05-14T01:34:49;9.98;;;6.10;;
5257;SDS011;2651;51.594;9.928;2023-05-14T01:35:53;7.78;;;7.03;;
5257;SDS011;2651;51.594;9.928;2023-05-14T01:36:55;8.13;;;6.65;;
5257;SDS011;2651;51.594;9.928;2023-05-14T01:38:02;8.02;;;6.18;;
5257;SDS011;2651;51.594;9.928;2023-05-14T01:39:06;7.00;;;5.85;;
5257;SDS011;2651;51.594;9.928;2023-05-14T01:40:09;7.57;;;6.18;;
5257;SDS011;2651;51.594;9.928;2023-05-14T01:41:11;6.75;;;6.13;;
5257;SDS011;2651;51.594;9.928;2023-05-14T01:42:14;7.40;;;6.35;;
5257;SDS011;2651;51.594;9.928;2023-05-14T01:43:16;7.10;;;5.85;;
5257;SDS011;2651;51.594;9.928;2023-05-14T01:44:19;6.60;;;5.90;;
5257;SDS011;2651;51.594;9.928;2023-05-14T01:45:22;9.95;;;6.72;;
5257;SDS011;2651;51.594;9.928;2023-05-14T01:46:24;6.88;;;6.28;;
5257;SDS011;2651;51.594;9.928;2023-05-14T01:47:25;10.02;;;6.45;;
5257;SDS011;2651;51.594;9.928;2023-05-14T01:48:27;15.00;;;7.43;;
5257;SDS011;2651;51.594;9.928;2023-05-14T01:49:30;8.70;;;6.65;;
5257;SDS011;2651;51.594;9.928;2023-05-14T01:50:32;7.82;;;7.03;;
5257;SDS011;2651;51.594;9.928;2023-05-14T01:51:34;7.32;;;6.47;;
5257;SDS011;2651;51.594;9.928;2023-05-14T01:52:35;8.05;;;7.18;;
5257;SDS011;2651;51.594;9.928;2023-05-14T01:53:37;7.40;;;6.75;;
5257;SDS011;2651;51.594;9.928;2023-05-14T01:54:39;7.30;;;6.60;;
5257;SDS011;2651;51.594;9.928;2023-05-14T01:55:40;7.40;;;6.35;;
5257;SDS011;2651;51.594;9.928;2023-05-14T01:56:42;10.00;;;7.72;;
5257;SDS011;2651;51.594;9.928;2023-05-14T01:57:44;8.30;;;6.78;;
5257;SDS011;2651;51.594;9.928;2023-05-14T01:58:45;7.00;;;6.40;;
5257;SDS011;2651;51.594;9.928;2023-05-14T01:59:47;7.75;;;6.95;;
5257;SDS011;2651;51.594;9.928;2023-05-14T02:00:49;9.80;;;7.72;;
5257;SDS011;2651;51.594;9.928;2023-05-14T02:01:50;8.60;;;7.00;;
5257;SDS011;2651;51.594;9.928;2023-05-14T02:02:52;7.63;;;6.82;;
5257;SDS011;2651;51.594;9.928;2023-05-14T02:03:54;7.18;;;6.47;;
5257;SDS011;2651;51.594;9.928;2023-05-14T02:04:57;8.85;;;7.32;;
5257;SDS011;2651;51.594;9.928;2023-05-14T02:05:58;9.40;;;7.45;;
5257;SDS011;2651;51.594;9.928;2023-05-14T02:07:00;7.75;;;6.95;;
5257;SDS011;2651;51.594;9.928;2023-05-14T02:08:01;7.97;;;7.18;;
5257;SDS011;2651;51.594;9.928;2023-05-14T02:09:03;8.43;;;7.63;;
5257;SDS011;2651;51.594;9.928;2023-05-14T02:10:05;8.35;;;7.47;;
5257;SDS011;2651;51.594;9.928;2023-05-14T02:11:07;9.45;;;7.97;;
5257;SDS011;2651;51.594;9.928;2023-05-14T02:12:09;9.40;;;7.72;;
5257;SDS011;2651;51.594;9.928;2023-05-14T02:13:11;9.73;;;7.25;;
5257;SDS011;2651;51.594;9.928;2023-05-14T02:14:13;9.32;;;7.68;;
5257;SDS011;2651;51.594;9.928;2023-05-14T02:15:15;7.97;;;7.18;;
5257;SDS011;2651;51.594;9.928;2023-05-14T02:16:17;17.77;;;7.72;;
5257;SDS011;2651;51.594;9.928;2023-05-14T02:17:19;10.55;;;7.30;;
5257;SDS011;2651;51.594;9.928;2023-05-14T02:18:20;9.77;;;7.88;;
5257;SDS011;2651;51.594;9.928;2023-05-14T02:19:22;15.63;;;7.43;;
5257;SDS011;2651;51.594;9.928;2023-05-14T02:20:24;8.85;;;7.97;;
5257;SDS011;2651;51.594;9.928;2023-05-14T02:21:26;9.02;;;7.82;;
5257;SDS011;2651;51.594;9.928;2023-05-14T02:22:27;8.40;;;7.50;;
5257;SDS011;2651;51.594;9.928;2023-05-14T02:23:29;8.88;;;7.95;;
5257;SDS011;2651;51.594;9.928;2023-05-14T02:24:41;9.63;;;8.13;;
5257;SDS011;2651;51.594;9.928;2023-05-14T02:25:43;8.63;;;7.82;;
5257;SDS011;2651;51.594;9.928;2023-05-14T02:26:44;9.45;;;8.05;;
5257;SDS011;2651;51.594;9.928;2023-05-14T02:27:46;8.32;;;7.40;;
5257;SDS011;2651;51.594;9.928;2023-05-14T02:28:49;9.15;;;7.90;;
5257;SDS011;2651;51.594;9.928;2023-05-14T02:29:51;8.50;;;7.70;;
5257;SDS011;2651;51.594;9.928;2023-05-14T02:30:57;7.97;;;7.18;;
5257;SDS011;2651;51.594;9.928;2023-05-14T02:31:59;8.75;;;7.50;;
5257;SDS011;2651;51.594;9.928;2023-05-14T02:33:01;9.07;;;8.10;;
5257;SDS011;2651;51.594;9.928;2023-05-14T02:34:03;9.57;;;8.55;;
5257;SDS011;2651;51.594;9.928;2023-05-14T02:35:06;9.07;;;7.97;;
5257;SDS011;2651;51.594;9.928;2023-05-14T02:36:08;9.75;;;8.38;;
5257;SDS011;2651;51.594;9.928;2023-05-14T02:37:10;10.90;;;7.43;;
5257;SDS011;2651;51.594;9.928;2023-05-14T02:38:12;8.98;;;7.95;;
5257;SDS011;2651;51.594;9.928;2023-05-14T02:39:13;11.20;;;8.18;;
5257;SDS011;2651;51.594;9.928;2023-05-14T02:40:15;10.20;;;8.98;;
5257;SDS011;2651;51.594;9.928;2023-05-14T02:41:17;8.82;;;7.95;;
5257;SDS011;2651;51.594;9.928;2023-05-14T02:42:18;10.10;;;8.30;;
5257;SDS011;2651;51.594;9.928;2023-05-14T02:43:20;10.35;;;8.68;;
5257;SDS011;2651;51.594;9.928;2023-05-14T02:44:21;8.65;;;7.80;;
5257;SDS011;2651;51.594;9.928;2023-05-14T02:45:23;9.35;;;7.80;;
5257;SDS011;2651;51.594;9.928;2023-05-14T02:46:25;9.57;;;7.60;;
5257;SDS011;2651;51.594;9.928;2023-05-14T02:47:27;9.07;;;8.18;;
5257;SDS011;2651;51.594;9.928;2023-05-14T02:48:28;10.20;;;8.18;;
5257;SDS011;2651;51.594;9.928;2023-05-14T02:49:30;9.82;;;8.23;;
5257;SDS011;2651;51.594;9.928;2023-05-14T02:50:31;11.93;;;8.98;;
5257;SDS011;2651;51.594;9.928;2023-05-14T02:51:33;9.48;;;8.20;;
5257;SDS011;2651;51.594;9.928;2023-05-14T02:52:35;12.13;;;7.80;;
5257;SDS011;2651;51.594;9.928;2023-05-14T02:53:36;8.38;;;7.53;;
5257;SDS011;2651;51.594;9.928;2023-05-14T02:54:38;10.95;;;8.00;;
5257;SDS011;2651;51.594;9.928;2023-05-14T02:55:39;9.15;;;7.90;;
5257;SDS011;2651;51.594;9.928;2023-05-14T02:56:41;10.15;;;8.70;;
5257;SDS011;2651;51.594;9.928;2023-05-14T02:57:43;10.70;;;8.45;;
5257;SDS011;2651;51.594;9.928;2023-05-14T02:58:44;9.50;;;8.45;;
5257;SDS011;2651;51.594;9.928;2023-05-14T02:59:46;9.70;;;7.25;;
5257;SDS011;2651;51.594;9.928;2023-05-14T03:00:48;8.98;;;8.18;;
5257;SDS011;2651;51.594;9.928;2023-05-14T03:01:50;8.98;;;8.05;;
5257;SDS011;2651;51.594;9.928;2023-05-14T03:02:52;13.93;;;8.90;;
5257;SDS011;2651;51.594;9.928;2023-05-14T03:03:54;8.80;;;7.88;;
5257;SDS011;2651;51.594;9.928;2023-05-14T03:04:56;8.95;;;8.02;;
5257;SDS011;2651;51.594;9.928;2023-05-14T03:05:58;9.25;;;8.35;;
5257;SDS011;2651;51.594;9.928;2023-05-14T03:06:59;10.73;;;8.48;;
5257;SDS011;2651;51.594;9.928;2023-05-14T03:08:01;8.85;;;7.95;;
5257;SDS011;2651;51.594;9.928;2023-05-14T03:09:03;8.93;;;7.32;;
5257;SDS011;2651;51.594;9.928;2023-05-14T03:10:04;11.02;;;8.45;;
5257;SDS011;2651;51.594;9.928;2023-05-14T03:11:06;11.30;;;7.65;;
5257;SDS011;2651;51.594;9.928;2023-05-14T03:12:08;15.45;;;7.80;;
5257;SDS011;2651;51.594;9.928;2023-05-14T03:13:09;8.77;;;7.88;;
5257;SDS011;2651;51.594;9.928;2023-05-14T03:14:11;8.50;;;7.65;;
5257;SDS011;2651;51.594;9.928;2023-05-14T03:15:13;8.88;;;8.07;;
5257;SDS011;2651;51.594;9.928;2023-05-14T03:16:14;10.02;;;8.20;;
5257;SDS011;2651;51.594;9.928;2023-05-14T03:17:16;10.90;;;8.43;;
5257;SDS011;2651;51.594;9.928;2023-05-14T03:18:18;8.75;;;7.95;;
5257;SDS011;2651;51.594;9.928;2023-05-14T03:19:19;8.88;;;7.97;;
5257;SDS011;2651;51.594;9.928;2023-05-14T03:20:22;9.00;;;8.20;;
5257;SDS011;2651;51.594;9.928;2023-05-14T03:21:25;9.25;;;8.05;;
5257;SDS011;2651;51.594;9.928;2023-05-14T03:22:27;8.70;;;7.80;;
5257;SDS011;2651;51.594;9.928;2023-05-14T03:23:28;11.35;;;7.50;;
5257;SDS011;2651;51.594;9.928;2023-05-14T03:24:33;9.52;;;8.63;;
5257;SDS011;2651;51.594;9.928;2023-05-14T03:25:35;8.45;;;7.60;;
5257;SDS011;2651;51.594;9.928;2023-05-14T03:26:37;9.25;;;8.25;;
5257;SDS011;2651;51.594;9.928;2023-05-14T03:27:38;8.52;;;7.63;;
5257;SDS011;2651;51.594;9.928;2023-05-14T03:28:40;12.27;;;8.18;;
5257;SDS011;2651;51.594;9.928;2023-05-14T03:29:41;8.73;;;7.82;;
5257;SDS011;2651;51.594;9.928;2023-05-14T03:30:43;8.90;;;8.00;;
5257;SDS011;2651;51.594;9.928;2023-05-14T03:31:45;9.77;;;8.10;;
5257;SDS011;2651;51.594;9.928;2023-05-14T03:32:46;11.35;;;8.43;;
5257;SDS011;2651;51.594;9.928;2023-05-14T03:33:48;8.95;;;8.05;;
5257;SDS011;2651;51.594;9.928;2023-05-14T03:34:50;10.98;;;8.73;;
5257;SDS011;2651;51.594;9.928;2023-05-14T03:35:51;12.60;;;9.07;;
5257;SDS011;2651;51.594;9.928;2023-05-14T03:36:53;9.13;;;8.23;;
5257;SDS011;2651;51.594;9.928;2023-05-14T03:37:54;9.70;;;8.50;;
5257;SDS011;2651;51.594;9.928;2023-05-14T03:38:59;9.77;;;8.77;;
5257;SDS011;2651;51.594;9.928;2023-05-14T03:40:00;12.27;;;8.32;;
5257;SDS011;2651;51.594;9.928;2023-05-14T03:41:02;11.13;;;8.05;;
5257;SDS011;2651;51.594;9.928;2023-05-14T03:42:04;13.27;;;8.13;;
5257;SDS011;2651;51.594;9.928;2023-05-14T03:43:05;11.07;;;8.48;;
5257;SDS011;2651;51.594;9.928;2023-05-14T03:44:07;9.00;;;8.10;;
5257;SDS011;2651;51.594;9.928;2023-05-14T03:45:09;8.93;;;8.13;;
5257;SDS011;2651;51.594;9.928;2023-05-14T03:46:10;9.70;;;8.27;;
5257;SDS011;2651;51.594;9.928;2023-05-14T03:47:12;8.93;;;8.02;;
5257;SDS011;2651;51.594;9.928;2023-05-14T03:48:14;8.75;;;7.85;;
5257;SDS011;2651;51.594;9.928;2023-05-14T03:49:15;9.57;;;8.10;;
5257;SDS011;2651;51.594;9.928;2023-05-14T03:50:17;9.55;;;8.55;;
5257;SDS011;2651;51.594;9.928;2023-05-14T03:51:19;11.25;;;7.93;;
5257;SDS011;2651;51.594;9.928;2023-05-14T03:52:20;9.77;;;7.80;;
5257;SDS011;2651;51.594;9.928;2023-05-14T03:53:22;14.07;;;7.97;;
5257;SDS011;2651;51.594;9.928;2023-05-14T03:54:24;8.30;;;7.60;;
5257;SDS011;2651;51.594;9.928;2023-05-14T03:55:26;9.35;;;7.88;;
5257;SDS011;2651;51.594;9.928;2023-05-14T03:56:28;11.98;;;8.27;;
5257;SDS011;2651;51.594;9.928;2023-05-14T03:57:29;9.65;;;8.40;;
5257;SDS011;2651;51.594;9.928;2023-05-14T03:58:31;8.27;;;7.38;;
5257;SDS011;2651;51.594;9.928;2023-05-14T03:59:33;8.90;;;8.00;;
5257;SDS011;2651;51.594;9.928;2023-05-14T04:00:34;8.13;;;7.22;;
5257;SDS011;2651;51.594;9.928;2023-05-14T04:01:36;10.43;;;7.65;;
5257;SDS011;2651;51.594;9.928;2023-05-14T04:02:38;10.20;;;8.13;;
5257;SDS011;2651;51.594;9.928;2023-05-14T04:03:40;9.48;;;7.20;;
5257;SDS011;2651;51.594;9.928;2023-05-14T04:04:42;8.00;;;7.22;;
5257;SDS011;2651;51.594;9.928;2023-05-14T04:05:43;9.35;;;8.13;;
5257;SDS011;2651;51.594;9.928;2023-05-14T04:06:46;7.75;;;6.88;;
5257;SDS011;2651;51.594;9.928;2023-05-14T04:07:47;10.25;;;8.05;;
5257;SDS011;2651;51.594;9.928;2023-05-14T04:08:49;8.40;;;7.30;;
5257;SDS011;2651;51.594;9.928;2023-05-14T04:09:51;9.20;;;7.30;;
5257;SDS011;2651;51.594;9.928;2023-05-14T04:10:52;8.60;;;7.60;;
5257;SDS011;2651;51.594;9.928;2023-05-14T04:11:54;10.00;;;7.53;;
5257;SDS011;2651;51.594;9.928;2023-05-14T04:12:56;15.20;;;7.88;;
5257;SDS011;2651;51.594;9.928;2023-05-14T04:13:57;10.68;;;8.02;;
5257;SDS011;2651;51.594;9.928;2023-05-14T04:14:59;10.90;;;7.75;;
5257;SDS011;2651;51.594;9.928;2023-05-14T04:16:01;7.78;;;7.07;;
5257;SDS011;2651;51.594;9.928;2023-05-14T04:17:03;10.75;;;7.80;;
5257;SDS011;2651;51.594;9.928;2023-05-14T04:18:04;9.25;;;6.97;;
5257;SDS011;2651;51.594;9.928;2023-05-14T04:19:06;8.52;;;7.47;;
5257;SDS011;2651;51.594;9.928;2023-05-14T04:20:08;11.35;;;7.90;;
5257;SDS011;2651;51.594;9.928;2023-05-14T04:21:10;9.27;;;8.27;;
5257;SDS011;2651;51.594;9.928;2023-05-14T04:22:12;9.40;;;8.35;;
5257;SDS011;2651;51.594;9.928;2023-05-14T04:23:14;8.85;;;7.93;;
5257;SDS011;2651;51.594;9.928;2023-05-14T04:24:15;9.50;;;7.90;;
5257;SDS011;2651;51.594;9.928;2023-05-14T04:25:17;7.93;;;7.03;;
5257;SDS011;2651;51.594;9.928;2023-05-14T04:26:19;11.20;;;7.50;;
5257;SDS011;2651;51.594;9.928;2023-05-14T04:27:21;8.18;;;7.38;;
5257;SDS011;2651;51.594;9.928;2023-05-14T04:28:23;11.23;;;9.15;;
5257;SDS011;2651;51.594;9.928;2023-05-14T04:29:25;10.70;;;7.72;;
5257;SDS011;2651;51.594;9.928;2023-05-14T04:30:26;12.02;;;7.82;;
5257;SDS011;2651;51.594;9.928;2023-05-14T04:31:28;8.73;;;7.72;;
5257;SDS011;2651;51.594;9.928;2023-05-14T04:32:31;8.93;;;8.02;;
5257;SDS011;2651;51.594;9.928;2023-05-14T04:33:33;8.82;;;7.90;;
5257;SDS011;2651;51.594;9.928;2023-05-14T04:34:35;8.77;;;7.93;;
5257;SDS011;2651;51.594;9.928;2023-05-14T04:35:36;9.70;;;8.10;;
5257;SDS011;2651;51.594;9.928;2023-05-14T04:36:38;11.30;;;8.73;;
5257;SDS011;2651;51.594;9.928;2023-05-14T04:37:40;8.82;;;7.82;;
5257;SDS011;2651;51.594;9.928;2023-05-14T04:38:41;7.80;;;7.00;;
5257;SDS011;2651;51.594;9.928;2023-05-14T04:39:43;10.68;;;8.48;;
5257;SDS011;2651;51.594;9.928;2023-05-14T04:40:45;13.05;;;8.68;;
5257;SDS011;2651;51.594;9.928;2023-05-14T04:41:46;9.68;;;8.68;;
5257;SDS011;2651;51.594;9.928;2023-05-14T04:42:48;17.20;;;8.35;;
5257;SDS011;2651;51.594;9.928;2023-05-14T04:43:50;11.25;;;8.40;;
5257;SDS011;2651;51.594;9.928;2023-05-14T04:44:55;11.27;;;8.35;;
5257;SDS011;2651;51.594;9.928;2023-05-14T04:45:57;14.30;;;8.25;;
5257;SDS011;2651;51.594;9.928;2023-05-14T04:46:58;9.70;;;8.70;;
5257;SDS011;2651;51.594;9.928;2023-05-14T04:48:01;11.85;;;8.70;;
5257;SDS011;2651;51.594;9.928;2023-05-14T04:49:07;10.18;;;8.48;;
5257;SDS011;2651;51.594;9.928;2023-05-14T04:50:09;9.15;;;8.25;;
5257;SDS011;2651;51.594;9.928;2023-05-14T04:51:11;11.38;;;9.00;;
5257;SDS011;2651;51.594;9.928;2023-05-14T04:52:12;12.13;;;8.60;;
5257;SDS011;2651;51.594;9.928;2023-05-14T04:53:14;11.45;;;8.52;;
5257;SDS011;2651;51.594;9.928;2023-05-14T04:54:16;9.73;;;8.52;;
5257;SDS011;2651;51.594;9.928;2023-05-14T04:55:17;9.00;;;8.05;;
5257;SDS011;2651;51.594;9.928;2023-05-14T04:56:19;9.18;;;8.27;;
5257;SDS011;2651;51.594;9.928;2023-05-14T04:57:21;9.07;;;8.10;;
5257;SDS011;2651;51.594;9.928;2023-05-14T04:58:23;13.52;;;8.32;;
5257;SDS011;2651;51.594;9.928;2023-05-14T04:59:24;13.02;;;7.82;;
5257;SDS011;2651;51.594;9.928;2023-05-14T05:00:26;10.68;;;8.73;;
5257;SDS011;2651;51.594;9.928;2023-05-14T05:01:28;9.73;;;7.60;;
5257;SDS011;2651;51.594;9.928;2023-05-14T05:02:30;8.35;;;7.35;;
5257;SDS011;2651;51.594;9.928;2023-05-14T05:03:32;8.82;;;8.02;;
5257;SDS011;2651;51.594;9.928;2023-05-14T05:04:34;10.98;;;8.32;;
5257;SDS011;2651;51.594;9.928;2023-05-14T05:05:35;11.73;;;8.20;;
5257;SDS011;2651;51.594;9.928;2023-05-14T05:06:37;11.93;;;8.27;;
5257;SDS011;2651;51.594;9.928;2023-05-14T05:07:38;11.18;;;8.40;;
5257;SDS011;2651;51.594;9.928;2023-05-14T05:08:40;9.38;;;8.40;;
5257;SDS011;2651;51.594;9.928;2023-05-14T05:09:42;13.63;;;7.97;;
5257;SDS011;2651;51.594;9.928;2023-05-14T05:10:44;9.75;;;8.75;;
5257;SDS011;2651;51.594;9.928;2023-05-14T05:11:46;14.52;;;8.18;;
5257;SDS011;2651;51.594;9.928;2023-05-14T05:12:47;8.85;;;7.82;;
5257;SDS011;2651;51.594;9.928;2023-05-14T05:13:49;8.82;;;7.90;;
5257;SDS011;2651;51.594;9.928;2023-05-14T05:14:50;8.93;;;8.05;;
5257;SDS011;2651;51.594;9.928;2023-05-14T05:15:52;10.05;;;8.70;;
5257;SDS011;2651;51.594;9.928;2023-05-14T05:16:54;9.55;;;8.20;;
5257;SDS011;2651;51.594;9.928;2023-05-14T05:17:56;8.88;;;7.70;;
5257;SDS011;2651;51.594;9.928;2023-05-14T05:18:57;8.75;;;7.95;;
5257;SDS011;2651;51.594;9.928;2023-05-14T05:19:59;8.55;;;7.75;;
5257;SDS011;2651;51.594;9.928;2023-05-14T05:21:01;9.57;;;7.82;;
5257;SDS011;2651;51.594;9.928;2023-05-14T05:22:02;8.80;;;7.90;;
5257;SDS011;2651;51.594;9.928;2023-05-14T05:23:04;9.20;;;8.18;;
5257;SDS011;2651;51.594;9.928;2023-05-14T05:24:06;10.27;;;8.13;;
5257;SDS011;2651;51.594;9.928;2023-05-14T05:25:09;11.57;;;8.05;;
5257;SDS011;2651;51.594;9.928;2023-05-14T05:26:12;10.50;;;7.40;;
5257;SDS011;2651;51.594;9.928;2023-05-14T05:27:14;10.40;;;7.75;;
5257;SDS011;2651;51.594;9.928;2023-05-14T05:28:16;10.93;;;7.85;;
5257;SDS011;2651;51.594;9.928;2023-05-14T05:29:17;18.55;;;8.48;;
5257;SDS011;2651;51.594;9.928;2023-05-14T05:30:19;16.35;;;8.20;;
5257;SDS011;2651;51.594;9.928;2023-05-14T05:31:21;10.25;;;9.15;;
5257;SDS011;2651;51.594;9.928;2023-05-14T05:32:23;8.55;;;7.50;;
5257;SDS011;2651;51.594;9.928;2023-05-14T05:33:25;8.93;;;8.00;;
5257;SDS011;2651;51.594;9.928;2023-05-14T05:34:26;15.18;;;8.75;;
5257;SDS011;2651;51.594;9.928;2023-05-14T05:35:28;12.13;;;8.90;;
5257;SDS011;2651;51.594;9.928;2023-05-14T05:36:30;9.15;;;8.15;;
5257;SDS011;2651;51.594;9.928;2023-05-14T05:37:32;10.23;;;8.70;;
5257;SDS011;2651;51.594;9.928;2023-05-14T05:38:33;9.10;;;7.22;;
5257;SDS011;2651;51.594;9.928;2023-05-14T05:39:35;9.10;;;8.30;;
5257;SDS011;2651;51.594;9.928;2023-05-14T05:40:36;8.25;;;7.45;;
5257;SDS011;2651;51.594;9.928;2023-05-14T05:41:38;8.63;;;7.82;;
5257;SDS011;2651;51.594;9.928;2023-05-14T05:42:41;8.43;;;7.63;;
5257;SDS011;2651;51.594;9.928;2023-05-14T05:43:42;9.38;;;7.50;;
5257;SDS011;2651;51.594;9.928;2023-05-14T05:44:44;11.68;;;7.88;;
5257;SDS011;2651;51.594;9.928;2023-05-14T05:45:46;10.57;;;7.35;;
5257;SDS011;2651;51.594;9.928;2023-05-14T05:46:47;9.15;;;8.02;;
5257;SDS011;2651;51.594;9.928;2023-05-14T05:47:49;7.60;;;6.90;;
5257;SDS011;2651;51.594;9.928;2023-05-14T05:48:51;8.70;;;7.68;;
5257;SDS011;2651;51.594;9.928;2023-05-14T05:49:53;8.85;;;7.95;;
5257;SDS011;2651;51.594;9.928;2023-05-14T05:50:55;12.65;;;8.20;;
5257;SDS011;2651;51.594;9.928;2023-05-14T05:51:56;12.80;;;9.15;;
5257;SDS011;2651;51.594;9.928;2023-05-14T05:52:58;8.07;;;7.28;;
5257;SDS011;2651;51.594;9.928;2023-05-14T05:53:59;9.05;;;8.15;;
5257;SDS011;2651;51.594;9.928;2023-05-14T05:55:01;14.95;;;7.95;;
5257;SDS011;2651;51.594;9.928;2023-05-14T05:56:03;9.05;;;7.60;;
5257;SDS011;2651;51.594;9.928;2023-05-14T05:57:06;8.63;;;7.35;;
5257;SDS011;2651;51.594;9.928;2023-05-14T05:58:08;8.90;;;8.10;;
5257;SDS011;2651;51.594;9.928;2023-05-14T05:59:09;8.35;;;7.55;;
5257;SDS011;2651;51.594;9.928;2023-05-14T06:00:11;8.98;;;7.90;;
5257;SDS011;2651;51.594;9.928;2023-05-14T06:01:13;8.15;;;7.00;;
5257;SDS011;2651;51.594;9.928;2023-05-14T06:02:15;11.52;;;8.20;;
5257;SDS011;2651;51.594;9.928;2023-05-14T06:03:16;8.80;;;7.95;;
5257;SDS011;2651;51.594;9.928;2023-05-14T06:04:18;7.80;;;7.10;;
5257;SDS011;2651;51.594;9.928;2023-05-14T06:05:20;9.07;;;7.50;;
5257;SDS011;2651;51.594;9.928;2023-05-14T06:06:22;8.10;;;6.93;;
5257;SDS011;2651;51.594;9.928;2023-05-14T06:07:23;10.02;;;6.97;;
5257;SDS011;2651;51.594;9.928;2023-05-14T06:08:25;9.00;;;8.00;;
5257;SDS011;2651;51.594;9.928;2023-05-14T06:09:26;8.13;;;7.43;;
5257;SDS011;2651;51.594;9.928;2023-05-14T06:10:28;9.52;;;7.60;;
5257;SDS011;2651;51.594;9.928;2023-05-14T06:11:30;9.02;;;8.13;;
5257;SDS011;2651;51.594;9.928;2023-05-14T06:12:31;9.77;;;8.02;;
5257;SDS011;2651;51.594;9.928;2023-05-14T06:13:33;8.35;;;7.65;;
5257;SDS011;2651;51.594;9.928;2023-05-14T06:14:34;9.48;;;8.52;;
5257;SDS011;2651;51.594;9.928;2023-05-14T06:15:36;9.40;;;7.80;;
5257;SDS011;2651;51.594;9.928;2023-05-14T06:16:38;8.32;;;7.43;;
5257;SDS011;2651;51.594;9.928;2023-05-14T06:17:39;8.05;;;7.35;;
5257;SDS011;2651;51.594;9.928;2023-05-14T06:18:41;26.50;;;8.25;;
5257;SDS011;2651;51.594;9.928;2023-05-14T06:19:43;8.85;;;7.55;;
5257;SDS011;2651;51.594;9.928;2023-05-14T06:20:45;10.63;;;7.47;;
5257;SDS011;2651;51.594;9.928;2023-05-14T06:21:46;11.38;;;7.43;;
5257;SDS011;2651;51.594;9.928;2023-05-14T06:22:48;8.70;;;7.47;;
5257;SDS011;2651;51.594;9.928;2023-05-14T06:23:49;8.65;;;7.60;;
5257;SDS011;2651;51.594;9.928;2023-05-14T06:24:51;9.77;;;7.85;;
5257;SDS011;2651;51.594;9.928;2023-05-14T06:25:52;8.73;;;7.45;;
5257;SDS011;2651;51.594;9.928;2023-05-14T06:26:54;8.60;;;7.65;;
5257;SDS011;2651;51.594;9.928;2023-05-14T06:27:56;8.38;;;7.55;;
5257;SDS011;2651;51.594;9.928;2023-05-14T06:28:57;9.50;;;7.57;;
5257;SDS011;2651;51.594;9.928;2023-05-14T06:29:59;8.45;;;6.53;;
5257;SDS011;2651;51.594;9.928;2023-05-14T06:31:01;7.53;;;6.82;;
5257;SDS011;2651;51.594;9.928;2023-05-14T06:32:03;7.85;;;7.05;;
5257;SDS011;2651;51.594;9.928;2023-05-14T06:33:05;10.02;;;7.80;;
5257;SDS011;2651;51.594;9.928;2023-05-14T06:34:07;8.65;;;7.85;;
5257;SDS011;2651;51.594;9.928;2023-05-14T06:35:09;10.60;;;7.70;;
5257;SDS011;2651;51.594;9.928;2023-05-14T06:36:10;7.70;;;7.00;;
5257;SDS011;2651;51.594;9.928;2023-05-14T06:37:12;10.32;;;7.20;;